^^
Saratoga-Weather Station Historical Data
Daily Summary for August 10, 2022 Units:  Both    English   Metric
Daily Weekly Monthly Yearly Custom
  High: Low: Average:
Temperature: 88.9 °F /  31.6 °C 64.9 °F /  18.3 °C 77.2 °F /  25.1 °C
Dew Point: 54.7 °F /  12.6 °C 46.9 °F /  8.3 °C 51.1 °F /  10.6 °C
Humidity: 63% 24% 42%
Wind Speed: 8.9mph /  14.3km/h - 2.1mph /  3.3km/h
Wind Gust: 14mph /  22.5km/h - -
Wind- - SE
Pressure: 30.2 in /  1022.0 hPa 30.1 in /  1018.3 hPa -
Precipitation: 0 in /  0.0 mm    
Historical Graphs
 
 
Tabular Data for August 10, 2022
Time Temperature Dew Point Pressure Wind Wind Speed Wind Gust Humidity Rainfall Rate (Hourly) solar
00:04 73 °F /  22.8 °C 51.6 °F /  10.9 °C 30.2in /  1021.7hPa WSW 2mph /  3.2km/h 4mph /  6.4km/h 47% 0in /  0.0mm 0 W/m2
00:09 73 °F /  22.8 °C 51.6 °F /  10.9 °C 30.2in /  1021.7hPa WSW 2.9mph /  4.7km/h 4mph /  6.4km/h 47% 0in /  0.0mm 0 W/m2
00:14 73 °F /  22.8 °C 52.2 °F /  11.2 °C 30.2in /  1021.7hPa West 2.9mph /  4.7km/h 3mph /  4.8km/h 48% 0in /  0.0mm 0 W/m2
00:19 73 °F /  22.8 °C 52.2 °F /  11.2 °C 30.2in /  1021.7hPa West 2mph /  3.2km/h 3mph /  4.8km/h 48% 0in /  0.0mm 0 W/m2
00:24 72.9 °F /  22.7 °C 52 °F /  11.1 °C 30.2in /  1021.7hPa WSW 2.9mph /  4.7km/h 3mph /  4.8km/h 48% 0in /  0.0mm 0 W/m2
00:29 72.7 °F /  22.6 °C 52.3 °F /  11.3 °C 30.2in /  1021.7hPa West 0.9mph /  1.4km/h 1mph /  1.6km/h 49% 0in /  0.0mm 0 W/m2
00:34 72.5 °F /  22.5 °C 52.3 °F /  11.3 °C 30.2in /  1021.7hPa NW 0.9mph /  1.4km/h 2mph /  3.2km/h 49% 0in /  0.0mm 0 W/m2
00:39 72.3 °F /  22.4 °C 52.7 °F /  11.5 °C 30.2in /  1021.7hPa West 0.9mph /  1.4km/h 3mph /  4.8km/h 50% 0in /  0.0mm 0 W/m2
00:44 72 °F /  22.2 °C 52.9 °F /  11.6 °C 30.2in /  1021.7hPa SW 0.9mph /  1.4km/h 2mph /  3.2km/h 51% 0in /  0.0mm 0 W/m2
00:49 71.8 °F /  22.1 °C 53.2 °F /  11.8 °C 30.2in /  1021.7hPa WNW 0.9mph /  1.4km/h 2mph /  3.2km/h 52% 0in /  0.0mm 0 W/m2
00:54 71.4 °F /  21.9 °C 52.9 °F /  11.6 °C 30.2in /  1021.7hPa WSW 2mph /  3.2km/h 3mph /  4.8km/h 52% 0in /  0.0mm 0 W/m2
00:59 71.4 °F /  21.9 °C 53.4 °F /  11.9 °C 30.2in /  1021.7hPa Calm   2mph /  3.2km/h 53% 0in /  0.0mm 0 W/m2
01:04 71.4 °F /  21.9 °C 53.4 °F /  11.9 °C 30.2in /  1021.7hPa West 2mph /  3.2km/h 2mph /  3.2km/h 53% 0in /  0.0mm 0 W/m2
01:09 71.2 °F /  21.8 °C 53.2 °F /  11.8 °C 30.2in /  1021.7hPa Calm   2mph /  3.2km/h 53% 0in /  0.0mm 0 W/m2
01:14 71.1 °F /  21.7 °C 53.6 °F /  12 °C 30.2in /  1021.7hPa West 2mph /  3.2km/h 3mph /  4.8km/h 54% 0in /  0.0mm 0 W/m2
01:19 71.1 °F /  21.7 °C 53.6 °F /  12 °C 30.2in /  1021.7hPa WSW 0.9mph /  1.4km/h 2mph /  3.2km/h 54% 0in /  0.0mm 0 W/m2
01:25 70.9 °F /  21.6 °C 54 °F /  12.2 °C 30.2in /  1021.7hPa SW 0.9mph /  1.4km/h 4mph /  6.4km/h 55% 0in /  0.0mm 0 W/m2
01:30 70.9 °F /  21.6 °C 54 °F /  12.2 °C 30.2in /  1021.7hPa SW 0.9mph /  1.4km/h 3mph /  4.8km/h 55% 0in /  0.0mm 0 W/m2
01:35 70.7 °F /  21.5 °C 53.8 °F /  12.1 °C 30.2in /  1021.7hPa WSW 2mph /  3.2km/h 3mph /  4.8km/h 55% 0in /  0.0mm 0 W/m2
01:40 70.7 °F /  21.5 °C 53.8 °F /  12.1 °C 30.2in /  1021.7hPa WSW 2mph /  3.2km/h 2mph /  3.2km/h 55% 0in /  0.0mm 0 W/m2
01:45 70.5 °F /  21.4 °C 54.1 °F /  12.3 °C 30.2in /  1021.7hPa WSW 2mph /  3.2km/h 2mph /  3.2km/h 56% 0in /  0.0mm 0 W/m2
01:50 70.3 °F /  21.3 °C 54 °F /  12.2 °C 30.2in /  1021.7hPa WSW 2.9mph /  4.7km/h 3mph /  4.8km/h 56% 0in /  0.0mm 0 W/m2
01:55 70 °F /  21.1 °C 54 °F /  12.2 °C 30.2in /  1021.7hPa West 0.9mph /  1.4km/h 3mph /  4.8km/h 57% 0in /  0.0mm 0 W/m2
02:00 70.2 °F /  21.2 °C 53.8 °F /  12.1 °C 30.2in /  1021.7hPa Calm   1mph /  1.6km/h 56% 0in /  0.0mm 0 W/m2
02:05 70.2 °F /  21.2 °C 53.8 °F /  12.1 °C 30.2in /  1021.7hPa WSW 2mph /  3.2km/h 3mph /  4.8km/h 56% 0in /  0.0mm 0 W/m2
02:10 70.2 °F /  21.2 °C 53.8 °F /  12.1 °C 30.2in /  1021.7hPa Calm   2mph /  3.2km/h 56% 0in /  0.0mm 0 W/m2
02:15 70.2 °F /  21.2 °C 53.8 °F /  12.1 °C 30.2in /  1021.7hPa Calm   4mph /  6.4km/h 56% 0in /  0.0mm 0 W/m2
02:20 70.3 °F /  21.3 °C 54 °F /  12.2 °C 30.2in /  1021.7hPa West 0.9mph /  1.4km/h 2mph /  3.2km/h 56% 0in /  0.0mm 0 W/m2
02:25 70.2 °F /  21.2 °C 54.1 °F /  12.3 °C 30.2in /  1021.3hPa Calm   3mph /  4.8km/h 57% 0in /  0.0mm 0 W/m2
02:30 70 °F /  21.1 °C 54 °F /  12.2 °C 30.2in /  1021.7hPa Calm   3mph /  4.8km/h 57% 0in /  0.0mm 0 W/m2
02:35 69.6 °F /  20.9 °C 54.1 °F /  12.3 °C 30.2in /  1021.7hPa WSW 2mph /  3.2km/h 2mph /  3.2km/h 58% 0in /  0.0mm 0 W/m2
02:40 69.3 °F /  20.7 °C 54.3 °F /  12.4 °C 30.2in /  1021.3hPa Calm   1mph /  1.6km/h 59% 0in /  0.0mm 0 W/m2
02:45 68.7 °F /  20.4 °C 53.8 °F /  12.1 °C 30.2in /  1021.7hPa Calm   1mph /  1.6km/h 59% 0in /  0.0mm 0 W/m2
02:50 68.5 °F /  20.3 °C 54.1 °F /  12.3 °C 30.2in /  1021.3hPa WSW 0.9mph /  1.4km/h 2mph /  3.2km/h 60% 0in /  0.0mm 0 W/m2
02:55 68.4 °F /  20.2 °C 54 °F /  12.2 °C 30.2in /  1021.3hPa Calm   1mph /  1.6km/h 60% 0in /  0.0mm 0 W/m2
03:00 68.2 °F /  20.1 °C 54.1 °F /  12.3 °C 30.2in /  1021.3hPa SSW 0.9mph /  1.4km/h 3mph /  4.8km/h 61% 0in /  0.0mm 0 W/m2
03:05 67.8 °F /  19.9 °C 54 °F /  12.2 °C 30.2in /  1021.3hPa Calm   2mph /  3.2km/h 61% 0in /  0.0mm 0 W/m2
03:10 67.6 °F /  19.8 °C 53.8 °F /  12.1 °C 30.2in /  1021.3hPa SSW 0.9mph /  1.4km/h 3mph /  4.8km/h 61% 0in /  0.0mm 0 W/m2
03:15 67.5 °F /  19.7 °C 53.6 °F /  12 °C 30.2in /  1021.3hPa Calm   1mph /  1.6km/h 61% 0in /  0.0mm 0 W/m2
03:20 67.3 °F /  19.6 °C 53.8 °F /  12.1 °C 30.2in /  1021.3hPa SSW 0.9mph /  1.4km/h 1mph /  1.6km/h 62% 0in /  0.0mm 0 W/m2
03:25 67.3 °F /  19.6 °C 53.8 °F /  12.1 °C 30.2in /  1021.3hPa SSW 0.9mph /  1.4km/h 2mph /  3.2km/h 62% 0in /  0.0mm 0 W/m2
03:30 67.1 °F /  19.5 °C 53.6 °F /  12 °C 30.2in /  1021.3hPa SSW 0.9mph /  1.4km/h 1mph /  1.6km/h 62% 0in /  0.0mm 0 W/m2
03:35 66.9 °F /  19.4 °C 53.4 °F /  11.9 °C 30.2in /  1021.3hPa SSW 0.9mph /  1.4km/h 2mph /  3.2km/h 62% 0in /  0.0mm 0 W/m2
03:40 66.7 °F /  19.3 °C 53.2 °F /  11.8 °C 30.2in /  1021.3hPa SSW 2mph /  3.2km/h 2mph /  3.2km/h 62% 0in /  0.0mm 0 W/m2
03:45 66.7 °F /  19.3 °C 53.2 °F /  11.8 °C 30.2in /  1021.3hPa SSW 2mph /  3.2km/h 2mph /  3.2km/h 62% 0in /  0.0mm 0 W/m2
03:50 66.6 °F /  19.2 °C 53.1 °F /  11.7 °C 30.2in /  1021.3hPa Calm   2mph /  3.2km/h 62% 0in /  0.0mm 0 W/m2
03:55 66.6 °F /  19.2 °C 53.1 °F /  11.7 °C 30.2in /  1021.3hPa SSW 0.9mph /  1.4km/h 2mph /  3.2km/h 62% 0in /  0.0mm 0 W/m2
04:00 66.4 °F /  19.1 °C 52.9 °F /  11.6 °C 30.2in /  1021.3hPa Calm   2mph /  3.2km/h 62% 0in /  0.0mm 0 W/m2
04:05 66.2 °F /  19 °C 52.9 °F /  11.6 °C 30.2in /  1021.3hPa Calm   1mph /  1.6km/h 62% 0in /  0.0mm 0 W/m2
04:10 66 °F /  18.9 °C 53.1 °F /  11.7 °C 30.2in /  1021.3hPa Calm   3mph /  4.8km/h 63% 0in /  0.0mm 0 W/m2
04:15 65.8 °F /  18.8 °C 52.5 °F /  11.4 °C 30.2in /  1021.3hPa Calm   3mph /  4.8km/h 62% 0in /  0.0mm 0 W/m2
04:20 65.8 °F /  18.8 °C 52.9 °F /  11.6 °C 30.2in /  1021.3hPa SSW 2mph /  3.2km/h 2mph /  3.2km/h 63% 0in /  0.0mm 0 W/m2
04:25 65.8 °F /  18.8 °C 52.5 °F /  11.4 °C 30.2in /  1021.3hPa SSW 0.9mph /  1.4km/h 3mph /  4.8km/h 62% 0in /  0.0mm 0 W/m2
04:30 65.7 °F /  18.7 °C 52.3 °F /  11.3 °C 30.2in /  1021.3hPa SSW 0.9mph /  1.4km/h 1mph /  1.6km/h 62% 0in /  0.0mm 0 W/m2
04:35 65.7 °F /  18.7 °C 52.3 °F /  11.3 °C 30.2in /  1021.3hPa SSW 0.9mph /  1.4km/h 1mph /  1.6km/h 62% 0in /  0.0mm 0 W/m2
04:40 65.7 °F /  18.7 °C 51.8 °F /  11 °C 30.2in /  1021.3hPa SW 0.9mph /  1.4km/h 1mph /  1.6km/h 61% 0in /  0.0mm 0 W/m2
04:45 65.8 °F /  18.8 °C 52.5 °F /  11.4 °C 30.2in /  1021.3hPa Calm   3mph /  4.8km/h 62% 0in /  0.0mm 0 W/m2
04:50 66 °F /  18.9 °C 52.2 °F /  11.2 °C 30.2in /  1021.3hPa SW 2mph /  3.2km/h 2mph /  3.2km/h 61% 0in /  0.0mm 0 W/m2
04:55 65.8 °F /  18.8 °C 52 °F /  11.1 °C 30.2in /  1021.3hPa SW 0.9mph /  1.4km/h 3mph /  4.8km/h 61% 0in /  0.0mm 0 W/m2
05:00 65.7 °F /  18.7 °C 51.8 °F /  11 °C 30.2in /  1021.3hPa SW 0.9mph /  1.4km/h 2mph /  3.2km/h 61% 0in /  0.0mm 0 W/m2
05:05 65.7 °F /  18.7 °C 52.3 °F /  11.3 °C 30.2in /  1021.3hPa WSW 0.9mph /  1.4km/h 1mph /  1.6km/h 62% 0in /  0.0mm 0 W/m2
05:10 65.7 °F /  18.7 °C 51.8 °F /  11 °C 30.2in /  1021.3hPa WSW 0.9mph /  1.4km/h 2mph /  3.2km/h 61% 0in /  0.0mm 0 W/m2
05:15 65.5 °F /  18.6 °C 51.6 °F /  10.9 °C 30.2in /  1021.3hPa WSW 0.9mph /  1.4km/h 1mph /  1.6km/h 61% 0in /  0.0mm 0 W/m2
05:20 65.7 °F /  18.7 °C 51.8 °F /  11 °C 30.2in /  1021.3hPa Calm   2mph /  3.2km/h 61% 0in /  0.0mm 0 W/m2
05:25 65.7 °F /  18.7 °C 51.8 °F /  11 °C 30.2in /  1021.3hPa West 0.9mph /  1.4km/h 3mph /  4.8km/h 61% 0in /  0.0mm 0 W/m2
05:30 65.7 °F /  18.7 °C 51.8 °F /  11 °C 30.2in /  1021.3hPa Calm   2mph /  3.2km/h 61% 0in /  0.0mm 0 W/m2
05:35 65.5 °F /  18.6 °C 51.6 °F /  10.9 °C 30.2in /  1021.3hPa West 0.9mph /  1.4km/h 3mph /  4.8km/h 61% 0in /  0.0mm 0 W/m2
05:40 65.3 °F /  18.5 °C 51.4 °F /  10.8 °C 30.2in /  1021.3hPa SW 0.9mph /  1.4km/h 3mph /  4.8km/h 61% 0in /  0.0mm 0 W/m2
05:45 65.1 °F /  18.4 °C 51.8 °F /  11 °C 30.2in /  1021.3hPa Calm   1mph /  1.6km/h 62% 0in /  0.0mm 0 W/m2
05:50 65.5 °F /  18.6 °C 51.6 °F /  10.9 °C 30.2in /  1021.3hPa Calm   3mph /  4.8km/h 61% 0in /  0.0mm 0 W/m2
05:55 65.5 °F /  18.6 °C 51.6 °F /  10.9 °C 30.2in /  1021.3hPa Calm   2mph /  3.2km/h 61% 0in /  0.0mm 0 W/m2
06:00 65.5 °F /  18.6 °C 51.6 °F /  10.9 °C 30.2in /  1021.3hPa Calm   1mph /  1.6km/h 61% 0in /  0.0mm 0 W/m2
06:05 65.5 °F /  18.6 °C 51.3 °F /  10.7 °C 30.2in /  1021.3hPa WSW 0.9mph /  1.4km/h 1mph /  1.6km/h 60% 0in /  0.0mm 0 W/m2
06:10 65.5 °F /  18.6 °C 51.6 °F /  10.9 °C 30.2in /  1021.3hPa WSW 0.9mph /  1.4km/h 2mph /  3.2km/h 61% 0in /  0.0mm 0 W/m2
06:15 65.5 °F /  18.6 °C 51.3 °F /  10.7 °C 30.2in /  1021.3hPa Calm   2mph /  3.2km/h 60% 0in /  0.0mm 0 W/m2
06:20 65.3 °F /  18.5 °C 51.4 °F /  10.8 °C 30.2in /  1021.3hPa WSW 0.9mph /  1.4km/h 2mph /  3.2km/h 61% 0in /  0.0mm 0 W/m2
06:26 65.1 °F /  18.4 °C 51.3 °F /  10.7 °C 30.2in /  1021.3hPa Calm   2mph /  3.2km/h 61% 0in /  0.0mm 5 W/m2
06:31 64.9 °F /  18.3 °C 51.6 °F /  10.9 °C 30.2in /  1021.7hPa WSW 0.9mph /  1.4km/h 2mph /  3.2km/h 62% 0in /  0.0mm 7 W/m2
06:36 64.9 °F /  18.3 °C 51.1 °F /  10.6 °C 30.2in /  1021.7hPa Calm   1mph /  1.6km/h 61% 0in /  0.0mm 9 W/m2
06:41 64.9 °F /  18.3 °C 51.1 °F /  10.6 °C 30.2in /  1021.7hPa WSW 2mph /  3.2km/h 2mph /  3.2km/h 61% 0in /  0.0mm 12 W/m2
06:46 64.9 °F /  18.3 °C 51.1 °F /  10.6 °C 30.2in /  1021.7hPa Calm   2mph /  3.2km/h 61% 0in /  0.0mm 14 W/m2
06:51 64.9 °F /  18.3 °C 51.1 °F /  10.6 °C 30.2in /  1021.7hPa NW 2mph /  3.2km/h 3mph /  4.8km/h 61% 0in /  0.0mm 16 W/m2
06:56 65.3 °F /  18.5 °C 51.1 °F /  10.6 °C 30.2in /  1021.7hPa North 0.9mph /  1.4km/h 2mph /  3.2km/h 60% 0in /  0.0mm 18 W/m2
07:01 65.8 °F /  18.8 °C 51.1 °F /  10.6 °C 30.2in /  1021.7hPa West 2mph /  3.2km/h 3mph /  4.8km/h 59% 0in /  0.0mm 19 W/m2
07:06 66 °F /  18.9 °C 50.9 °F /  10.5 °C 30.2in /  1021.7hPa Calm   2mph /  3.2km/h 58% 0in /  0.0mm 21 W/m2
07:11 66.4 °F /  19.1 °C 51.1 °F /  10.6 °C 30.2in /  1021.7hPa Calm   2mph /  3.2km/h 58% 0in /  0.0mm 23 W/m2
07:16 66.6 °F /  19.2 °C 51.3 °F /  10.7 °C 30.2in /  1021.7hPa Calm   2mph /  3.2km/h 58% 0in /  0.0mm 25 W/m2
07:21 66.7 °F /  19.3 °C 51.1 °F /  10.6 °C 30.2in /  1021.7hPa North 2mph /  3.2km/h 4mph /  6.4km/h 57% 0in /  0.0mm 26 W/m2
07:26 66.9 °F /  19.4 °C 51.3 °F /  10.7 °C 30.2in /  1021.7hPa Calm   5mph /  8km/h 57% 0in /  0.0mm 26 W/m2
07:31 66.9 °F /  19.4 °C 51.3 °F /  10.7 °C 30.2in /  1021.7hPa Calm   2mph /  3.2km/h 57% 0in /  0.0mm 67 W/m2
07:36 67.3 °F /  19.6 °C 51.4 °F /  10.8 °C 30.2in /  1021.7hPa SW 2.9mph /  4.7km/h 5mph /  8km/h 57% 0in /  0.0mm 88 W/m2
07:41 67.6 °F /  19.8 °C 51.4 °F /  10.8 °C 30.2in /  1021.7hPa Calm     56% 0in /  0.0mm 100 W/m2
07:46 68.4 °F /  20.2 °C 51.6 °F /  10.9 °C 30.2in /  1021.7hPa ESE 0.9mph /  1.4km/h 3mph /  4.8km/h 55% 0in /  0.0mm 116 W/m2
07:51 68.9 °F /  20.5 °C 52 °F /  11.1 °C 30.2in /  1021.7hPa NW 2.9mph /  4.7km/h 3mph /  4.8km/h 55% 0in /  0.0mm 130 W/m2
07:56 69.3 °F /  20.7 °C 51.4 °F /  10.8 °C 30.2in /  1021.7hPa Calm   3mph /  4.8km/h 53% 0in /  0.0mm 144 W/m2
08:01 69.6 °F /  20.9 °C 51.8 °F /  11 °C 30.2in /  1021.7hPa NNE 0.9mph /  1.4km/h 3mph /  4.8km/h 53% 0in /  0.0mm 158 W/m2
08:06 70 °F /  21.1 °C 51.6 °F /  10.9 °C 30.2in /  1021.7hPa Calm   2mph /  3.2km/h 52% 0in /  0.0mm 176 W/m2
08:11 70.5 °F /  21.4 °C 52 °F /  11.1 °C 30.2in /  1022.0hPa ENE 2mph /  3.2km/h 3mph /  4.8km/h 52% 0in /  0.0mm 190 W/m2
08:16 70.9 °F /  21.6 °C 51.8 °F /  11 °C 30.2in /  1022.0hPa East 2mph /  3.2km/h 3mph /  4.8km/h 51% 0in /  0.0mm 149 W/m2
08:21 71.1 °F /  21.7 °C 52 °F /  11.1 °C 30.2in /  1022.0hPa NW 2mph /  3.2km/h 3mph /  4.8km/h 51% 0in /  0.0mm 79 W/m2
08:26 70.9 °F /  21.6 °C 51.8 °F /  11 °C 30.2in /  1022.0hPa NW 2mph /  3.2km/h 3mph /  4.8km/h 51% 0in /  0.0mm 44 W/m2
08:31 70.9 °F /  21.6 °C 51.8 °F /  11 °C 30.2in /  1022.0hPa West 0.9mph /  1.4km/h 4mph /  6.4km/h 51% 0in /  0.0mm 44 W/m2
08:36 71.1 °F /  21.7 °C 52 °F /  11.1 °C 30.2in /  1022.0hPa NNE 4mph /  6.4km/h 4mph /  6.4km/h 51% 0in /  0.0mm 44 W/m2
08:41 71.4 °F /  21.9 °C 52.3 °F /  11.3 °C 30.2in /  1022.0hPa ENE 0.9mph /  1.4km/h 4mph /  6.4km/h 51% 0in /  0.0mm 44 W/m2
08:46 71.8 °F /  22.1 °C 52.2 °F /  11.2 °C 30.2in /  1022.0hPa NNW 2.9mph /  4.7km/h 3mph /  4.8km/h 50% 0in /  0.0mm 44 W/m2
08:51 72.1 °F /  22.3 °C 52.5 °F /  11.4 °C 30.2in /  1022.0hPa Calm   3mph /  4.8km/h 50% 0in /  0.0mm 44 W/m2
08:56 72.5 °F /  22.5 °C 52.9 °F /  11.6 °C 30.2in /  1022.0hPa ENE 4mph /  6.4km/h 4mph /  6.4km/h 50% 0in /  0.0mm 44 W/m2
09:01 73 °F /  22.8 °C 53.2 °F /  11.8 °C 30.2in /  1022.0hPa Calm   2mph /  3.2km/h 50% 0in /  0.0mm 44 W/m2
09:06 73.4 °F /  23 °C 52.5 °F /  11.4 °C 30.2in /  1022.0hPa East 0.9mph /  1.4km/h 3mph /  4.8km/h 48% 0in /  0.0mm 42 W/m2
09:11 73.6 °F /  23.1 °C 52.7 °F /  11.5 °C 30.2in /  1022.0hPa North 2mph /  3.2km/h 4mph /  6.4km/h 48% 0in /  0.0mm 46 W/m2
09:16 73.6 °F /  23.1 °C 52.7 °F /  11.5 °C 30.2in /  1022.0hPa Calm   2mph /  3.2km/h 48% 0in /  0.0mm 46 W/m2
09:21 73.8 °F /  23.2 °C 52.9 °F /  11.6 °C 30.2in /  1022.0hPa NNE 0.9mph /  1.4km/h 3mph /  4.8km/h 48% 0in /  0.0mm 44 W/m2
09:26 74.1 °F /  23.4 °C 53.2 °F /  11.8 °C 30.2in /  1022.0hPa NNW 0.9mph /  1.4km/h 2mph /  3.2km/h 48% 0in /  0.0mm 46 W/m2
09:31 74.7 °F /  23.7 °C 53.1 °F /  11.7 °C 30.2in /  1022.0hPa East 0.9mph /  1.4km/h 5mph /  8km/h 47% 0in /  0.0mm 46 W/m2
09:36 74.8 °F /  23.8 °C 52.7 °F /  11.5 °C 30.2in /  1022.0hPa Calm   7mph /  11.3km/h 46% 0in /  0.0mm 46 W/m2
09:41 74.8 °F /  23.8 °C 52.7 °F /  11.5 °C 30.2in /  1022.0hPa NNE 0.9mph /  1.4km/h 3mph /  4.8km/h 46% 0in /  0.0mm 47 W/m2
09:46 74.8 °F /  23.8 °C 53.2 °F /  11.8 °C 30.2in /  1022.0hPa ESE 4mph /  6.4km/h 7mph /  11.3km/h 47% 0in /  0.0mm 46 W/m2
09:51 75.4 °F /  24.1 °C 53.8 °F /  12.1 °C 30.2in /  1022.0hPa ENE 2mph /  3.2km/h 9mph /  14.5km/h 47% 0in /  0.0mm 47 W/m2
09:56 75.4 °F /  24.1 °C 53.2 °F /  11.8 °C 30.2in /  1022.0hPa ESE 0.9mph /  1.4km/h 8mph /  12.9km/h 46% 0in /  0.0mm 51 W/m2
10:01 75.7 °F /  24.3 °C 54.1 °F /  12.3 °C 30.2in /  1022.0hPa NNE 6mph /  9.7km/h 6mph /  9.7km/h 47% 0in /  0.0mm 51 W/m2
10:06 76.3 °F /  24.6 °C 53.4 °F /  11.9 °C 30.2in /  1022.0hPa NNE 4mph /  6.4km/h 8mph /  12.9km/h 45% 0in /  0.0mm 53 W/m2
10:11 76.8 °F /  24.9 °C 54.5 °F /  12.5 °C 30.2in /  1022.0hPa East 4.9mph /  7.9km/h 6mph /  9.7km/h 46% 0in /  0.0mm 239 W/m2
10:16 77.2 °F /  25.1 °C 53.6 °F /  12 °C 30.2in /  1022.0hPa NNW 0.9mph /  1.4km/h 3mph /  4.8km/h 44% 0in /  0.0mm 519 W/m2
10:21 77.5 °F /  25.3 °C 54 °F /  12.2 °C 30.2in /  1022.0hPa NNE 0.9mph /  1.4km/h 6mph /  9.7km/h 44% 0in /  0.0mm 536 W/m2
10:26 77.7 °F /  25.4 °C 54.1 °F /  12.3 °C 30.2in /  1022.0hPa NNW 2.9mph /  4.7km/h 4mph /  6.4km/h 44% 0in /  0.0mm 554 W/m2
10:31 78.3 °F /  25.7 °C 54.5 °F /  12.5 °C 30.2in /  1022.0hPa NE 4mph /  6.4km/h 6mph /  9.7km/h 44% 0in /  0.0mm 566 W/m2
10:36 79 °F /  26.1 °C 54 °F /  12.2 °C 30.2in /  1022.0hPa East 6mph /  9.7km/h 7mph /  11.3km/h 42% 0in /  0.0mm 575 W/m2
10:41 79.5 °F /  26.4 °C 53.8 °F /  12.1 °C 30.2in /  1022.0hPa East 6mph /  9.7km/h 7mph /  11.3km/h 41% 0in /  0.0mm 587 W/m2
10:46 79.9 °F /  26.6 °C 54.7 °F /  12.6 °C 30.2in /  1022.0hPa NE 2mph /  3.2km/h 6mph /  9.7km/h 42% 0in /  0.0mm 598 W/m2
10:51 80.1 °F /  26.7 °C 54.3 °F /  12.4 °C 30.2in /  1022.0hPa NE 2mph /  3.2km/h 3mph /  4.8km/h 41% 0in /  0.0mm 612 W/m2
10:56 80.6 °F /  27 °C 54.7 °F /  12.6 °C 30.2in /  1022.0hPa NE 0.9mph /  1.4km/h 6mph /  9.7km/h 41% 0in /  0.0mm 621 W/m2
11:01 81.1 °F /  27.3 °C 54.5 °F /  12.5 °C 30.2in /  1022.0hPa NE 6mph /  9.7km/h 9mph /  14.5km/h 40% 0in /  0.0mm 638 W/m2
11:06 81 °F /  27.2 °C 54.3 °F /  12.4 °C 30.2in /  1021.7hPa NNE 2.9mph /  4.7km/h 4mph /  6.4km/h 40% 0in /  0.0mm 645 W/m2
11:11 81.3 °F /  27.4 °C 54.7 °F /  12.6 °C 30.2in /  1021.7hPa NE 8.9mph /  14.3km/h 11mph /  17.7km/h 40% 0in /  0.0mm 654 W/m2
11:16 81.7 °F /  27.6 °C 54.3 °F /  12.4 °C 30.2in /  1021.7hPa ENE 4mph /  6.4km/h 4mph /  6.4km/h 39% 0in /  0.0mm 652 W/m2
11:21 82 °F /  27.8 °C 54 °F /  12.2 °C 30.2in /  1021.7hPa East 0.9mph /  1.4km/h 7mph /  11.3km/h 38% 0in /  0.0mm 673 W/m2
11:26 81.9 °F /  27.7 °C 52.3 °F /  11.3 °C 30.2in /  1021.7hPa ESE 4mph /  6.4km/h 13mph /  20.9km/h 36% 0in /  0.0mm 682 W/m2
11:31 82 °F /  27.8 °C 52.5 °F /  11.4 °C 30.2in /  1021.7hPa SE 8.1mph /  13km/h 10mph /  16.1km/h 36% 0in /  0.0mm 694 W/m2
11:36 82.4 °F /  28 °C 52 °F /  11.1 °C 30.2in /  1021.7hPa SE 2.9mph /  4.7km/h 11mph /  17.7km/h 35% 0in /  0.0mm 705 W/m2
11:41 82.8 °F /  28.2 °C 52.3 °F /  11.3 °C 30.2in /  1021.7hPa ENE 4mph /  6.4km/h 10mph /  16.1km/h 35% 0in /  0.0mm 712 W/m2
11:46 83.1 °F /  28.4 °C 52.7 °F /  11.5 °C 30.2in /  1021.3hPa ESE 2.9mph /  4.7km/h 10mph /  16.1km/h 35% 0in /  0.0mm 724 W/m2
11:51 82.9 °F /  28.3 °C 52.5 °F /  11.4 °C 30.2in /  1021.3hPa East 6.9mph /  11.1km/h 12mph /  19.3km/h 35% 0in /  0.0mm 735 W/m2
11:56 83.1 °F /  28.4 °C 51.8 °F /  11 °C 30.2in /  1021.3hPa East 4mph /  6.4km/h 8mph /  12.9km/h 34% 0in /  0.0mm 738 W/m2
12:01 83.5 °F /  28.6 °C 52.2 °F /  11.2 °C 30.2in /  1021.3hPa ENE 6mph /  9.7km/h 12mph /  19.3km/h 34% 0in /  0.0mm 745 W/m2
12:06 83.7 °F /  28.7 °C 52.3 °F /  11.3 °C 30.2in /  1021.3hPa ENE 8.9mph /  14.3km/h 10mph /  16.1km/h 34% 0in /  0.0mm 752 W/m2
12:11 83.7 °F /  28.7 °C 51.4 °F /  10.8 °C 30.2in /  1021.7hPa SE 2.9mph /  4.7km/h 9mph /  14.5km/h 33% 0in /  0.0mm 759 W/m2
12:16 83.7 °F /  28.7 °C 51.4 °F /  10.8 °C 30.2in /  1021.3hPa East 2.9mph /  4.7km/h 10mph /  16.1km/h 33% 0in /  0.0mm 768 W/m2
12:21 83.8 °F /  28.8 °C 51.6 °F /  10.9 °C 30.2in /  1021.3hPa ESE 2.9mph /  4.7km/h 9mph /  14.5km/h 33% 0in /  0.0mm 779 W/m2
12:26 84 °F /  28.9 °C 50.9 °F /  10.5 °C 30.2in /  1021.3hPa NE 4.9mph /  7.9km/h 9mph /  14.5km/h 32% 0in /  0.0mm 780 W/m2
12:31 84 °F /  28.9 °C 51.8 °F /  11 °C 30.2in /  1021.3hPa ENE 4mph /  6.4km/h 10mph /  16.1km/h 33% 0in /  0.0mm 789 W/m2
12:36 84.2 °F /  29 °C 52 °F /  11.1 °C 30.2in /  1021.3hPa NE 2.9mph /  4.7km/h 7mph /  11.3km/h 33% 0in /  0.0mm 800 W/m2
12:41 84.6 °F /  29.2 °C 52.3 °F /  11.3 °C 30.2in /  1021.0hPa SE 2.9mph /  4.7km/h 10mph /  16.1km/h 33% 0in /  0.0mm 800 W/m2
12:46 84.9 °F /  29.4 °C 51.8 °F /  11 °C 30.2in /  1021.3hPa ENE 2.9mph /  4.7km/h 7mph /  11.3km/h 32% 0in /  0.0mm 802 W/m2
12:51 85.1 °F /  29.5 °C 51.1 °F /  10.6 °C 30.2in /  1021.3hPa NE 4.9mph /  7.9km/h 10mph /  16.1km/h 31% 0in /  0.0mm 807 W/m2
12:56 85.3 °F /  29.6 °C 52.2 °F /  11.2 °C 30.2in /  1021.0hPa NE 4mph /  6.4km/h 10mph /  16.1km/h 32% 0in /  0.0mm 809 W/m2
13:01 85.3 °F /  29.6 °C 52.2 °F /  11.2 °C 30.2in /  1021.0hPa ESE 6mph /  9.7km/h 8mph /  12.9km/h 32% 0in /  0.0mm 810 W/m2
13:06 85.6 °F /  29.8 °C 50.7 °F /  10.4 °C 30.2in /  1021.0hPa ENE 2mph /  3.2km/h 12mph /  19.3km/h 30% 0in /  0.0mm 816 W/m2
13:11 85.1 °F /  29.5 °C 51.1 °F /  10.6 °C 30.2in /  1021.0hPa NE 6.9mph /  11.1km/h 13mph /  20.9km/h 31% 0in /  0.0mm 816 W/m2
13:16 84.9 °F /  29.4 °C 50.9 °F /  10.5 °C 30.2in /  1021.0hPa SE 2mph /  3.2km/h 9mph /  14.5km/h 31% 0in /  0.0mm 817 W/m2
13:21 85.5 °F /  29.7 °C 51.4 °F /  10.8 °C 30.1in /  1020.7hPa NE 4.9mph /  7.9km/h 13mph /  20.9km/h 31% 0in /  0.0mm 824 W/m2
13:26 85.5 °F /  29.7 °C 51.4 °F /  10.8 °C 30.1in /  1020.7hPa ESE 2mph /  3.2km/h 6mph /  9.7km/h 31% 0in /  0.0mm 830 W/m2
13:31 85.8 °F /  29.9 °C 50.7 °F /  10.4 °C 30.1in /  1020.7hPa SE 4mph /  6.4km/h 12mph /  19.3km/h 30% 0in /  0.0mm 835 W/m2
13:36 86.2 °F /  30.1 °C 51.1 °F /  10.6 °C 30.1in /  1020.7hPa ENE 2mph /  3.2km/h 5mph /  8km/h 30% 0in /  0.0mm 817 W/m2
13:41 85.8 °F /  29.9 °C 50.7 °F /  10.4 °C 30.1in /  1020.7hPa NE 4.9mph /  7.9km/h 10mph /  16.1km/h 30% 0in /  0.0mm 830 W/m2
13:46 85.6 °F /  29.8 °C 50.7 °F /  10.4 °C 30.1in /  1020.7hPa NE 6mph /  9.7km/h 9mph /  14.5km/h 30% 0in /  0.0mm 831 W/m2
13:51 85.5 °F /  29.7 °C 50.5 °F /  10.3 °C 30.1in /  1020.7hPa South 2.9mph /  4.7km/h 7mph /  11.3km/h 30% 0in /  0.0mm 830 W/m2
13:56 85.8 °F /  29.9 °C 51.6 °F /  10.9 °C 30.1in /  1020.7hPa ENE 4.9mph /  7.9km/h 14mph /  22.5km/h 31% 0in /  0.0mm 828 W/m2
14:01 86.2 °F /  30.1 °C 51.1 °F /  10.6 °C 30.1in /  1020.7hPa NE 4.9mph /  7.9km/h 9mph /  14.5km/h 30% 0in /  0.0mm 826 W/m2
14:06 85.8 °F /  29.9 °C 49.8 °F /  9.9 °C 30.1in /  1020.7hPa East 2.9mph /  4.7km/h 12mph /  19.3km/h 29% 0in /  0.0mm 826 W/m2
14:11 85.6 °F /  29.8 °C 50.7 °F /  10.4 °C 30.1in /  1020.7hPa North 4.9mph /  7.9km/h 9mph /  14.5km/h 30% 0in /  0.0mm 828 W/m2
14:16 86.2 °F /  30.1 °C 51.1 °F /  10.6 °C 30.1in /  1020.3hPa SE 2.9mph /  4.7km/h 4mph /  6.4km/h 30% 0in /  0.0mm 828 W/m2
14:21 86.4 °F /  30.2 °C 52.2 °F /  11.2 °C 30.1in /  1020.3hPa East 8.1mph /  13km/h 8mph /  12.9km/h 31% 0in /  0.0mm 821 W/m2
14:26 86.5 °F /  30.3 °C 51.4 °F /  10.8 °C 30.1in /  1020.3hPa ESE 2.9mph /  4.7km/h 8mph /  12.9km/h 30% 0in /  0.0mm 821 W/m2
14:31 86.9 °F /  30.5 °C 50.9 °F /  10.5 °C 30.1in /  1020.7hPa East 4mph /  6.4km/h 9mph /  14.5km/h 29% 0in /  0.0mm 823 W/m2
14:36 86.7 °F /  30.4 °C 49.6 °F /  9.8 °C 30.1in /  1020.3hPa NW 0.9mph /  1.4km/h 5mph /  8km/h 28% 0in /  0.0mm 819 W/m2
14:41 86.7 °F /  30.4 °C 50.7 °F /  10.4 °C 30.1in /  1020.3hPa SE 2mph /  3.2km/h 7mph /  11.3km/h 29% 0in /  0.0mm 821 W/m2
14:46 86.9 °F /  30.5 °C 49.8 °F /  9.9 °C 30.1in /  1020.3hPa ESE 2mph /  3.2km/h 11mph /  17.7km/h 28% 0in /  0.0mm 826 W/m2
14:51 87.1 °F /  30.6 °C 50.9 °F /  10.5 °C 30.1in /  1020.0hPa ENE 4.9mph /  7.9km/h 6mph /  9.7km/h 29% 0in /  0.0mm 819 W/m2
14:56 87.3 °F /  30.7 °C 50.2 °F /  10.1 °C 30.1in /  1020.0hPa ENE 2mph /  3.2km/h 6mph /  9.7km/h 28% 0in /  0.0mm 812 W/m2
15:01 87.3 °F /  30.7 °C 50.2 °F /  10.1 °C 30.1in /  1020.0hPa ESE 6.9mph /  11.1km/h 9mph /  14.5km/h 28% 0in /  0.0mm 807 W/m2
15:06 87.1 °F /  30.6 °C 50.9 °F /  10.5 °C 30.1in /  1020.0hPa SE 2.9mph /  4.7km/h 7mph /  11.3km/h 29% 0in /  0.0mm 800 W/m2
15:11 87.1 °F /  30.6 °C 50 °F /  10 °C 30.1in /  1020.0hPa East 4mph /  6.4km/h 12mph /  19.3km/h 28% 0in /  0.0mm 800 W/m2
15:16 86.9 °F /  30.5 °C 49.8 °F /  9.9 °C 30.1in /  1020.0hPa ENE 4.9mph /  7.9km/h 11mph /  17.7km/h 28% 0in /  0.0mm 796 W/m2
15:21 86.7 °F /  30.4 °C 50.7 °F /  10.4 °C 30.1in /  1019.6hPa ENE 2.9mph /  4.7km/h 9mph /  14.5km/h 29% 0in /  0.0mm 789 W/m2
15:26 87.1 °F /  30.6 °C 50 °F /  10 °C 30.1in /  1019.6hPa ENE 8.9mph /  14.3km/h 9mph /  14.5km/h 28% 0in /  0.0mm 779 W/m2
15:31 87.3 °F /  30.7 °C 50.2 °F /  10.1 °C 30.1in /  1019.6hPa ESE 2.9mph /  4.7km/h 9mph /  14.5km/h 28% 0in /  0.0mm 773 W/m2
15:36 87.6 °F /  30.9 °C 50.5 °F /  10.3 °C 30.1in /  1019.6hPa NE 2.9mph /  4.7km/h 7mph /  11.3km/h 28% 0in /  0.0mm 768 W/m2
15:41 87.6 °F /  30.9 °C 49.5 °F /  9.7 °C 30.1in /  1019.6hPa NNW 2mph /  3.2km/h 4mph /  6.4km/h 27% 0in /  0.0mm 766 W/m2
15:46 88 °F /  31.1 °C 50.7 °F /  10.4 °C 30.1in /  1019.6hPa ENE 2mph /  3.2km/h 8mph /  12.9km/h 28% 0in /  0.0mm 756 W/m2
15:51 88.3 °F /  31.3 °C 50.2 °F /  10.1 °C 30.1in /  1019.3hPa East 6mph /  9.7km/h 9mph /  14.5km/h 27% 0in /  0.0mm 745 W/m2
15:56 88.2 °F /  31.2 °C 48.9 °F /  9.4 °C 30.1in /  1019.3hPa NE 2.9mph /  4.7km/h 13mph /  20.9km/h 26% 0in /  0.0mm 737 W/m2
16:01 88 °F /  31.1 °C 48.7 °F /  9.3 °C 30.1in /  1019.3hPa NE 4.9mph /  7.9km/h 11mph /  17.7km/h 26% 0in /  0.0mm 721 W/m2
16:06 88.2 °F /  31.2 °C 50 °F /  10 °C 30.1in /  1019.3hPa ESE 2.9mph /  4.7km/h 13mph /  20.9km/h 27% 0in /  0.0mm 717 W/m2
16:11 88.3 °F /  31.3 °C 50.2 °F /  10.1 °C 30.1in /  1019.3hPa ENE 4.9mph /  7.9km/h 10mph /  16.1km/h 27% 0in /  0.0mm 710 W/m2
16:16 88.2 °F /  31.2 °C 48.9 °F /  9.4 °C 30.1in /  1019.3hPa NE 4.9mph /  7.9km/h 9mph /  14.5km/h 26% 0in /  0.0mm 694 W/m2
16:21 87.8 °F /  31 °C 48.6 °F /  9.2 °C 30.1in /  1019.0hPa ENE 4mph /  6.4km/h 7mph /  11.3km/h 26% 0in /  0.0mm 687 W/m2
16:26 88 °F /  31.1 °C 49.8 °F /  9.9 °C 30.1in /  1019.3hPa SE 2mph /  3.2km/h 7mph /  11.3km/h 27% 0in /  0.0mm 677 W/m2
16:32 88.3 °F /  31.3 °C 49.1 °F /  9.5 °C 30.1in /  1019.0hPa East 2mph /  3.2km/h 10mph /  16.1km/h 26% 0in /  0.0mm 668 W/m2
16:37 88.3 °F /  31.3 °C 50.2 °F /  10.1 °C 30.1in /  1019.0hPa ENE 4.9mph /  7.9km/h 5mph /  8km/h 27% 0in /  0.0mm 657 W/m2
16:42 88.5 °F /  31.4 °C 49.3 °F /  9.6 °C 30.1in /  1019.0hPa SE 2.9mph /  4.7km/h 7mph /  11.3km/h 26% 0in /  0.0mm 650 W/m2
16:47 88.7 °F /  31.5 °C 49.5 °F /  9.7 °C 30.1in /  1019.0hPa East 2mph /  3.2km/h 6mph /  9.7km/h 26% 0in /  0.0mm 642 W/m2
16:52 88.9 °F /  31.6 °C 49.6 °F /  9.8 °C 30.1in /  1019.0hPa East 4mph /  6.4km/h 7mph /  11.3km/h 26% 0in /  0.0mm 631 W/m2
16:57 88.5 °F /  31.4 °C 49.3 °F /  9.6 °C 30.1in /  1019.0hPa SE 2mph /  3.2km/h 7mph /  11.3km/h 26% 0in /  0.0mm 622 W/m2
17:02 88.7 °F /  31.5 °C 49.5 °F /  9.7 °C 30.1in /  1019.0hPa ENE 6.9mph /  11.1km/h 9mph /  14.5km/h 26% 0in /  0.0mm 606 W/m2
17:07 88.5 °F /  31.4 °C 49.3 °F /  9.6 °C 30.1in /  1019.0hPa ESE 2.9mph /  4.7km/h 9mph /  14.5km/h 26% 0in /  0.0mm 592 W/m2
17:12 88.5 °F /  31.4 °C 49.3 °F /  9.6 °C 30.1in /  1019.0hPa ESE 4mph /  6.4km/h 11mph /  17.7km/h 26% 0in /  0.0mm 580 W/m2
17:17 88.7 °F /  31.5 °C 49.5 °F /  9.7 °C 30.1in /  1019.0hPa NE 4mph /  6.4km/h 9mph /  14.5km/h 26% 0in /  0.0mm 570 W/m2
17:22 88.5 °F /  31.4 °C 49.3 °F /  9.6 °C 30.1in /  1019.0hPa ESE 8.1mph /  13km/h 8mph /  12.9km/h 26% 0in /  0.0mm 557 W/m2
17:27 88.3 °F /  31.3 °C 49.1 °F /  9.5 °C 30.1in /  1019.0hPa NE 2mph /  3.2km/h 5mph /  8km/h 26% 0in /  0.0mm 547 W/m2
17:32 88.5 °F /  31.4 °C 49.3 °F /  9.6 °C 30.1in /  1019.0hPa ENE 4.9mph /  7.9km/h 9mph /  14.5km/h 26% 0in /  0.0mm 536 W/m2
17:37 88.3 °F /  31.3 °C 48 °F /  8.9 °C 30.1in /  1018.6hPa NE 2.9mph /  4.7km/h 6mph /  9.7km/h 25% 0in /  0.0mm 519 W/m2
17:42 88.5 °F /  31.4 °C 49.3 °F /  9.6 °C 30.1in /  1018.6hPa East 2.9mph /  4.7km/h 4mph /  6.4km/h 26% 0in /  0.0mm 506 W/m2
17:47 88.9 °F /  31.6 °C 49.6 °F /  9.8 °C 30.1in /  1018.6hPa ESE 2mph /  3.2km/h 4mph /  6.4km/h 26% 0in /  0.0mm 496 W/m2
17:52 88.9 °F /  31.6 °C 49.6 °F /  9.8 °C 30.1in /  1018.6hPa East 4mph /  6.4km/h 6mph /  9.7km/h 26% 0in /  0.0mm 480 W/m2
17:57 88.3 °F /  31.3 °C 49.1 °F /  9.5 °C 30.1in /  1018.6hPa NE 2mph /  3.2km/h 7mph /  11.3km/h 26% 0in /  0.0mm 464 W/m2
18:02 88.3 °F /  31.3 °C 49.1 °F /  9.5 °C 30.1in /  1018.6hPa East 6.9mph /  11.1km/h 7mph /  11.3km/h 26% 0in /  0.0mm 452 W/m2
18:07 88.2 °F /  31.2 °C 47.8 °F /  8.8 °C 30.1in /  1018.3hPa NNE 2.9mph /  4.7km/h 10mph /  16.1km/h 25% 0in /  0.0mm 439 W/m2
18:12 88.2 °F /  31.2 °C 48.9 °F /  9.4 °C 30.1in /  1018.6hPa East 4mph /  6.4km/h 10mph /  16.1km/h 26% 0in /  0.0mm 424 W/m2
18:17 88.3 °F /  31.3 °C 49.1 °F /  9.5 °C 30.1in /  1018.3hPa NE 2.9mph /  4.7km/h 8mph /  12.9km/h 26% 0in /  0.0mm 406 W/m2
18:22 88.5 °F /  31.4 °C 48.2 °F /  9 °C 30.1in /  1018.6hPa ESE 2.9mph /  4.7km/h 10mph /  16.1km/h 25% 0in /  0.0mm 396 W/m2
18:27 88.3 °F /  31.3 °C 46.9 °F /  8.3 °C 30.1in /  1018.3hPa NNE 2.9mph /  4.7km/h 5mph /  8km/h 24% 0in /  0.0mm 376 W/m2
18:32 88.2 °F /  31.2 °C 47.8 °F /  8.8 °C 30.1in /  1018.6hPa NNE 4mph /  6.4km/h 8mph /  12.9km/h 25% 0in /  0.0mm 366 W/m2
18:37 87.6 °F /  30.9 °C 48.6 °F /  9.2 °C 30.1in /  1018.6hPa ESE 2mph /  3.2km/h 7mph /  11.3km/h 26% 0in /  0.0mm 350 W/m2
18:42 87.6 °F /  30.9 °C 48.6 °F /  9.2 °C 30.1in /  1018.6hPa ESE 0.9mph /  1.4km/h 4mph /  6.4km/h 26% 0in /  0.0mm 338 W/m2
18:47 87.6 °F /  30.9 °C 48.6 °F /  9.2 °C 30.1in /  1018.6hPa SE 2mph /  3.2km/h 3mph /  4.8km/h 26% 0in /  0.0mm 323 W/m2
18:52 87.4 °F /  30.8 °C 48.4 °F /  9.1 °C 30.1in /  1018.6hPa SE 0.9mph /  1.4km/h 8mph /  12.9km/h 26% 0in /  0.0mm 308 W/m2
18:57 87.4 °F /  30.8 °C 48.4 °F /  9.1 °C 30.1in /  1018.6hPa NE 4mph /  6.4km/h 6mph /  9.7km/h 26% 0in /  0.0mm 287 W/m2
19:02 87.4 °F /  30.8 °C 47.3 °F /  8.5 °C 30.1in /  1018.6hPa ESE 2mph /  3.2km/h 11mph /  17.7km/h 25% 0in /  0.0mm 265 W/m2
19:07 87.3 °F /  30.7 °C 47.1 °F /  8.4 °C 30.1in /  1018.3hPa ENE 2mph /  3.2km/h 4mph /  6.4km/h 25% 0in /  0.0mm 137 W/m2
19:12 87.1 °F /  30.6 °C 48 °F /  8.9 °C 30.1in /  1018.3hPa ESE 2.9mph /  4.7km/h 11mph /  17.7km/h 26% 0in /  0.0mm 88 W/m2
19:17 86.9 °F /  30.5 °C 47.8 °F /  8.8 °C 30.1in /  1018.3hPa SE 2.9mph /  4.7km/h 5mph /  8km/h 26% 0in /  0.0mm 49 W/m2
19:22 86.5 °F /  30.3 °C 47.7 °F /  8.7 °C 30.1in /  1018.3hPa East 4.9mph /  7.9km/h 6mph /  9.7km/h 26% 0in /  0.0mm 46 W/m2
19:27 86.5 °F /  30.3 °C 48.6 °F /  9.2 °C 30.1in /  1018.3hPa ENE 2.9mph /  4.7km/h 6mph /  9.7km/h 27% 0in /  0.0mm 42 W/m2
19:32 86.4 °F /  30.2 °C 48.4 °F /  9.1 °C 30.1in /  1018.3hPa ESE 6.9mph /  11.1km/h 8mph /  12.9km/h 27% 0in /  0.0mm 40 W/m2
19:37 86.2 °F /  30.1 °C 49.3 °F /  9.6 °C 30.1in /  1018.3hPa ENE 2.9mph /  4.7km/h 4mph /  6.4km/h 28% 0in /  0.0mm 39 W/m2
19:42 86 °F /  30 °C 49.1 °F /  9.5 °C 30.1in /  1018.3hPa SE 0.9mph /  1.4km/h 3mph /  4.8km/h 28% 0in /  0.0mm 37 W/m2
19:47 86 °F /  30 °C 48.2 °F /  9 °C 30.1in /  1018.3hPa ESE 2.9mph /  4.7km/h 4mph /  6.4km/h 27% 0in /  0.0mm 37 W/m2
19:52 85.6 °F /  29.8 °C 48.7 °F /  9.3 °C 30.1in /  1018.3hPa South 2mph /  3.2km/h 9mph /  14.5km/h 28% 0in /  0.0mm 33 W/m2
19:57 85.5 °F /  29.7 °C 48.6 °F /  9.2 °C 30.1in /  1018.3hPa SE 2mph /  3.2km/h 7mph /  11.3km/h 28% 0in /  0.0mm 32 W/m2
20:02 85.3 °F /  29.6 °C 48.6 °F /  9.2 °C 30.1in /  1018.3hPa East 2mph /  3.2km/h 9mph /  14.5km/h 28% 0in /  0.0mm 30 W/m2
20:07 85.3 °F /  29.6 °C 49.5 °F /  9.7 °C 30.1in /  1018.3hPa East 2mph /  3.2km/h 3mph /  4.8km/h 29% 0in /  0.0mm 30 W/m2
20:12 84.9 °F /  29.4 °C 48.2 °F /  9 °C 30.1in /  1018.3hPa SE 0.9mph /  1.4km/h 10mph /  16.1km/h 28% 0in /  0.0mm 28 W/m2
20:17 84.6 °F /  29.2 °C 47.8 °F /  8.8 °C 30.1in /  1018.3hPa East 2mph /  3.2km/h 5mph /  8km/h 28% 0in /  0.0mm 25 W/m2
20:22 84.4 °F /  29.1 °C 48.7 °F /  9.3 °C 30.1in /  1018.3hPa ESE 0.9mph /  1.4km/h 10mph /  16.1km/h 29% 0in /  0.0mm 21 W/m2
20:27 83.8 °F /  28.8 °C 48.2 °F /  9 °C 30.1in /  1018.3hPa SSE 2.9mph /  4.7km/h 3mph /  4.8km/h 29% 0in /  0.0mm 19 W/m2
20:32 83.5 °F /  28.6 °C 48.7 °F /  9.3 °C 30.1in /  1018.3hPa ESE 0.9mph /  1.4km/h 2mph /  3.2km/h 30% 0in /  0.0mm 16 W/m2
20:37 82.9 °F /  28.3 °C 48.4 °F /  9.1 °C 30.1in /  1018.3hPa ENE 2mph /  3.2km/h 7mph /  11.3km/h 30% 0in /  0.0mm 14 W/m2
20:42 82.4 °F /  28 °C 48.7 °F /  9.3 °C 30.1in /  1018.6hPa Calm   3mph /  4.8km/h 31% 0in /  0.0mm 11 W/m2
20:47 82 °F /  27.8 °C 48.4 °F /  9.1 °C 30.1in /  1018.6hPa SE 0.9mph /  1.4km/h 1mph /  1.6km/h 31% 0in /  0.0mm 9 W/m2
20:52 81.3 °F /  27.4 °C 48.6 °F /  9.2 °C 30.1in /  1018.6hPa Calm   1mph /  1.6km/h 32% 0in /  0.0mm 7 W/m2
20:57 80.8 °F /  27.1 °C 50.5 °F /  10.3 °C 30.1in /  1018.6hPa ENE 0.9mph /  1.4km/h 3mph /  4.8km/h 35% 0in /  0.0mm 5 W/m2
21:02 80.1 °F /  26.7 °C 50 °F /  10 °C 30.1in /  1018.6hPa Calm   1mph /  1.6km/h 35% 0in /  0.0mm 0 W/m2
21:07 79.5 °F /  26.4 °C 48.7 °F /  9.3 °C 30.1in /  1018.6hPa Calm   1mph /  1.6km/h 34% 0in /  0.0mm 0 W/m2
21:12 79 °F /  26.1 °C 48.9 °F /  9.4 °C 30.1in /  1018.6hPa Calm     35% 0in /  0.0mm 0 W/m2
21:17 78.6 °F /  25.9 °C 47.8 °F /  8.8 °C 30.1in /  1018.6hPa NE 0.9mph /  1.4km/h 6mph /  9.7km/h 34% 0in /  0.0mm 0 W/m2
21:22 78.4 °F /  25.8 °C 48.6 °F /  9.2 °C 30.1in /  1018.6hPa Calm   1mph /  1.6km/h 35% 0in /  0.0mm 0 W/m2
21:27 78.3 °F /  25.7 °C 48.4 °F /  9.1 °C 30.1in /  1019.0hPa ENE 2.9mph /  4.7km/h 6mph /  9.7km/h 35% 0in /  0.0mm 0 W/m2
21:32 78.1 °F /  25.6 °C 48.2 °F /  9 °C 30.1in /  1018.6hPa Calm   2mph /  3.2km/h 35% 0in /  0.0mm 0 W/m2
21:37 77.7 °F /  25.4 °C 47.1 °F /  8.4 °C 30.1in /  1019.0hPa NE 0.9mph /  1.4km/h 4mph /  6.4km/h 34% 0in /  0.0mm 0 W/m2
21:42 77.5 °F /  25.3 °C 48.6 °F /  9.2 °C 30.1in /  1018.6hPa Calm   1mph /  1.6km/h 36% 0in /  0.0mm 0 W/m2
21:47 77.2 °F /  25.1 °C 48.2 °F /  9 °C 30.1in /  1019.0hPa Calm   1mph /  1.6km/h 36% 0in /  0.0mm 0 W/m2
21:52 76.8 °F /  24.9 °C 47.8 °F /  8.8 °C 30.1in /  1019.0hPa ESE 2mph /  3.2km/h 2mph /  3.2km/h 36% 0in /  0.0mm 0 W/m2
21:57 76.5 °F /  24.7 °C 47.5 °F /  8.6 °C 30.1in /  1019.0hPa ENE 0.9mph /  1.4km/h 4mph /  6.4km/h 36% 0in /  0.0mm 0 W/m2
22:02 76.5 °F /  24.7 °C 48.2 °F /  9 °C 30.1in /  1019.0hPa Calm   1mph /  1.6km/h 37% 0in /  0.0mm 0 W/m2
22:07 76.1 °F /  24.5 °C 48.6 °F /  9.2 °C 30.1in /  1019.0hPa ENE 0.9mph /  1.4km/h 4mph /  6.4km/h 38% 0in /  0.0mm 0 W/m2
22:12 75.7 °F /  24.3 °C 48.4 °F /  9.1 °C 30.1in /  1019.0hPa Calm   1mph /  1.6km/h 38% 0in /  0.0mm 0 W/m2
22:17 75.6 °F /  24.2 °C 48.9 °F /  9.4 °C 30.1in /  1019.0hPa Calm   2mph /  3.2km/h 39% 0in /  0.0mm 0 W/m2
22:22 75 °F /  23.9 °C 48.4 °F /  9.1 °C 30.1in /  1019.0hPa Calm   1mph /  1.6km/h 39% 0in /  0.0mm 0 W/m2
22:27 74.8 °F /  23.8 °C 48.9 °F /  9.4 °C 30.1in /  1019.0hPa ESE 0.9mph /  1.4km/h 2mph /  3.2km/h 40% 0in /  0.0mm 0 W/m2
22:32 74.5 °F /  23.6 °C 48.6 °F /  9.2 °C 30.1in /  1019.0hPa Calm   1mph /  1.6km/h 40% 0in /  0.0mm 0 W/m2
22:37 74.1 °F /  23.4 °C 48.9 °F /  9.4 °C 30.1in /  1019.0hPa Calm     41% 0in /  0.0mm 0 W/m2
22:42 73.6 °F /  23.1 °C 49.1 °F /  9.5 °C 30.1in /  1019.0hPa Calm   1mph /  1.6km/h 42% 0in /  0.0mm 0 W/m2
22:47 73.2 °F /  22.9 °C 48.7 °F /  9.3 °C 30.1in /  1019.0hPa Calm     42% 0in /  0.0mm 0 W/m2
22:52 72.9 °F /  22.7 °C 48.4 °F /  9.1 °C 30.1in /  1019.0hPa Calm     42% 0in /  0.0mm 0 W/m2
22:57 72.5 °F /  22.5 °C 49.3 °F /  9.6 °C 30.1in /  1019.0hPa Calm     44% 0in /  0.0mm 0 W/m2
23:02 72.1 °F /  22.3 °C 49.1 °F /  9.5 °C 30.1in /  1019.0hPa Calm     44% 0in /  0.0mm 0 W/m2
23:07 71.8 °F /  22.1 °C 49.3 °F /  9.6 °C 30.1in /  1019.0hPa Calm     45% 0in /  0.0mm 0 W/m2
23:12 71.4 °F /  21.9 °C 49.6 °F /  9.8 °C 30.1in /  1019.0hPa Calm     46% 0in /  0.0mm 0 W/m2
23:17 71.1 °F /  21.7 °C 49.3 °F /  9.6 °C 30.1in /  1019.0hPa Calm     46% 0in /  0.0mm 0 W/m2
23:23 70.7 °F /  21.5 °C 48.9 °F /  9.4 °C 30.1in /  1019.0hPa Calm   1mph /  1.6km/h 46% 0in /  0.0mm 0 W/m2
23:28 70.5 °F /  21.4 °C 48.7 °F /  9.3 °C 30.1in /  1019.0hPa ESE 0.9mph /  1.4km/h 2mph /  3.2km/h 46% 0in /  0.0mm 0 W/m2
23:33 70.3 °F /  21.3 °C 49.1 °F /  9.5 °C 30.1in /  1019.0hPa Calm   1mph /  1.6km/h 47% 0in /  0.0mm 0 W/m2
23:38 70.2 °F /  21.2 °C 48.9 °F /  9.4 °C 30.1in /  1019.0hPa Calm   2mph /  3.2km/h 47% 0in /  0.0mm 0 W/m2
23:43 70 °F /  21.1 °C 48.7 °F /  9.3 °C 30.1in /  1019.0hPa Calm   1mph /  1.6km/h 47% 0in /  0.0mm 0 W/m2
23:48 69.8 °F /  21 °C 49.3 °F /  9.6 °C 30.1in /  1019.0hPa ESE 0.9mph /  1.4km/h 2mph /  3.2km/h 48% 0in /  0.0mm 0 W/m2
23:53 69.6 °F /  20.9 °C 49.1 °F /  9.5 °C 30.1in /  1019.0hPa ESE 0.9mph /  1.4km/h 1mph /  1.6km/h 48% 0in /  0.0mm 0 W/m2
23:58 69.4 °F /  20.8 °C 48.9 °F /  9.4 °C 30.1in /  1019.0hPa Calm   1mph /  1.6km/h 48% 0in /  0.0mm 0 W/m2
Juneau County Weather
Compliments of Weather Underground - 4 mb